createdAt,value
2018-07-10T00:00:21.991Z,0
2018-07-10T00:01:21.767Z,0
2018-07-10T00:02:22.001Z,0
2018-07-10T00:03:21.798Z,0
2018-07-10T00:04:21.488Z,0
2018-07-10T00:05:21.756Z,0
2018-07-10T00:06:21.996Z,0
2018-07-10T00:07:21.765Z,0
2018-07-10T00:08:21.793Z,0
2018-07-10T00:09:21.495Z,0
2018-07-10T00:10:22.018Z,0
2018-07-10T00:11:21.497Z,0
2018-07-10T00:12:23.288Z,0
2018-07-10T00:13:21.766Z,0
2018-07-10T00:14:21.770Z,0
2018-07-10T00:15:22.027Z,0
2018-07-10T00:16:21.816Z,0
2018-07-10T00:17:22.837Z,0
2018-07-10T00:18:21.510Z,0
2018-07-10T00:19:21.262Z,0
2018-07-10T00:20:21.801Z,0
2018-07-10T00:21:21.772Z,0
2018-07-10T00:22:21.800Z,0
2018-07-10T00:23:21.532Z,0
2018-07-10T00:24:21.526Z,0
2018-07-10T00:25:21.264Z,0
2018-07-10T00:26:22.041Z,0
2018-07-10T00:27:21.544Z,0
2018-07-10T00:28:21.291Z,0
2018-07-10T00:29:21.817Z,0
2018-07-10T00:30:21.818Z,0
2018-07-10T00:31:22.040Z,0
2018-07-10T00:32:21.647Z,0
2018-07-10T00:33:21.291Z,0
2018-07-10T00:34:21.828Z,0
2018-07-10T00:35:22.089Z,0
2018-07-10T00:36:21.820Z,0
2018-07-10T00:37:21.833Z,0
2018-07-10T00:38:21.831Z,0
2018-07-10T00:39:21.858Z,0
2018-07-10T00:40:21.823Z,0
2018-07-10T00:41:21.848Z,0
2018-07-10T00:42:23.212Z,0
2018-07-10T00:43:21.915Z,0
2018-07-10T00:44:21.862Z,0
2018-07-10T00:45:21.859Z,0
2018-07-10T00:46:22.085Z,0
2018-07-10T00:47:21.858Z,0
2018-07-10T00:48:22.094Z,0
2018-07-10T00:49:21.835Z,0
2018-07-10T00:50:21.579Z,0
2018-07-10T00:51:21.860Z,0
2018-07-10T00:52:21.864Z,0
2018-07-10T00:53:21.864Z,0
2018-07-10T00:54:21.845Z,0
2018-07-10T00:55:21.602Z,0
2018-07-10T00:56:22.102Z,0
2018-07-10T00:57:22.164Z,0
2018-07-10T00:58:21.870Z,0
2018-07-10T00:59:21.878Z,0
2018-07-10T01:00:21.606Z,0
2018-07-10T01:01:21.886Z,0
2018-07-10T01:02:22.104Z,0
2018-07-10T01:03:22.123Z,0
2018-07-10T01:04:22.112Z,0
2018-07-10T01:05:22.098Z,0
2018-07-10T01:06:21.891Z,0
2018-07-10T01:07:22.122Z,0
2018-07-10T01:08:21.627Z,0
2018-07-10T01:09:21.894Z,0
2018-07-10T01:10:21.884Z,0
2018-07-10T01:11:22.124Z,0
2018-07-10T01:12:22.395Z,0
2018-07-10T01:13:21.396Z,0
2018-07-10T01:14:21.619Z,0
2018-07-10T01:15:21.901Z,0
2018-07-10T01:16:21.638Z,0
2018-07-10T01:17:21.890Z,0
2018-07-10T01:18:21.885Z,0
2018-07-10T01:19:21.656Z,0
2018-07-10T01:20:21.633Z,0
2018-07-10T01:21:21.918Z,0
2018-07-10T01:22:21.694Z,0
2018-07-10T01:23:22.148Z,0
2018-07-10T01:24:21.898Z,0
2018-07-10T01:25:21.917Z,0
2018-07-10T01:26:21.900Z,0
2018-07-10T01:27:22.159Z,0
2018-07-10T01:28:21.907Z,0
2018-07-10T01:29:21.911Z,0
2018-07-10T01:30:21.918Z,0
2018-07-10T01:31:21.921Z,0
2018-07-10T01:32:21.683Z,0
2018-07-10T01:33:22.179Z,0
2018-07-10T01:34:21.683Z,0
2018-07-10T01:35:21.922Z,0
2018-07-10T01:36:21.696Z,0
2018-07-10T01:37:21.683Z,0
2018-07-10T01:38:22.161Z,0
2018-07-10T01:39:21.933Z,0
2018-07-10T01:40:21.683Z,0
2018-07-10T01:41:21.949Z,0
2018-07-10T01:42:21.687Z,0
2018-07-10T01:43:21.832Z,0
2018-07-10T01:44:21.936Z,0
2018-07-10T01:45:21.688Z,0
2018-07-10T01:46:22.183Z,0
2018-07-10T01:47:21.699Z,0
2018-07-10T01:48:21.947Z,0
2018-07-10T01:49:22.210Z,0
2018-07-10T01:50:21.961Z,0
2018-07-10T01:51:21.948Z,0
2018-07-10T01:52:21.699Z,0
2018-07-10T01:53:21.696Z,0
2018-07-10T01:54:22.196Z,0
2018-07-10T01:55:21.951Z,0
2018-07-10T01:56:21.702Z,0
2018-07-10T01:57:21.737Z,0
2018-07-10T01:58:21.962Z,0
2018-07-10T01:59:22.199Z,0
2018-07-10T02:00:22.203Z,0
2018-07-10T02:01:21.955Z,0
2018-07-10T02:02:21.698Z,0
2018-07-10T02:03:21.968Z,0
2018-07-10T02:04:22.203Z,0
2018-07-10T02:05:21.959Z,0
2018-07-10T02:06:22.216Z,0
2018-07-10T02:07:21.735Z,0
2018-07-10T02:08:21.990Z,0
2018-07-10T02:09:21.988Z,0
2018-07-10T02:10:22.233Z,0
2018-07-10T02:11:22.225Z,0
2018-07-10T02:12:22.255Z,0
2018-07-10T02:13:21.980Z,0
2018-07-10T02:14:21.971Z,0
2018-07-10T02:15:21.991Z,0
2018-07-10T02:16:21.971Z,0
2018-07-10T02:17:21.746Z,0
2018-07-10T02:18:21.759Z,0
2018-07-10T02:19:22.288Z,0
2018-07-10T02:20:21.985Z,0
2018-07-10T02:21:21.766Z,0
2018-07-10T02:22:22.234Z,0
2018-07-10T02:23:22.000Z,0
2018-07-10T02:24:22.236Z,0
2018-07-10T02:25:21.993Z,0
2018-07-10T02:26:21.745Z,0
2018-07-10T02:27:22.012Z,0
2018-07-10T02:28:21.754Z,0
2018-07-10T02:29:22.023Z,0
2018-07-10T02:30:22.263Z,0
2018-07-10T02:31:22.255Z,0
2018-07-10T02:32:22.254Z,0
2018-07-10T02:33:22.014Z,0
2018-07-10T02:34:22.257Z,0
2018-07-10T02:35:22.271Z,0
2018-07-10T02:36:22.028Z,0
2018-07-10T02:37:22.268Z,0
2018-07-10T02:38:22.071Z,0
2018-07-10T02:39:22.260Z,0
2018-07-10T02:40:22.083Z,0
2018-07-10T02:41:22.007Z,0
2018-07-10T02:42:22.018Z,0
2018-07-10T02:43:22.016Z,0
2018-07-10T02:44:21.892Z,0
2018-07-10T02:45:21.790Z,0
2018-07-10T02:46:22.281Z,0
2018-07-10T02:47:21.789Z,0
2018-07-10T02:48:21.803Z,0
2018-07-10T02:49:22.280Z,0
2018-07-10T02:50:22.307Z,0
2018-07-10T02:51:21.796Z,0
2018-07-10T02:52:21.838Z,0
2018-07-10T02:53:22.028Z,0
2018-07-10T02:54:22.310Z,4
2018-07-10T02:55:21.823Z,4
2018-07-10T02:56:22.305Z,4
2018-07-10T02:57:22.303Z,0
2018-07-10T02:58:21.817Z,4
2018-07-10T02:59:21.761Z,4
2018-07-10T03:00:22.305Z,4
2018-07-10T03:01:22.323Z,4
2018-07-10T03:02:22.295Z,4
2018-07-10T03:03:22.316Z,8
2018-07-10T03:04:22.058Z,8
2018-07-10T03:05:22.308Z,8
2018-07-10T03:06:22.042Z,12
2018-07-10T03:07:22.307Z,12
2018-07-10T03:08:22.317Z,12
2018-07-10T03:09:22.058Z,12
2018-07-10T03:10:22.312Z,16
2018-07-10T03:11:22.057Z,16
2018-07-10T03:12:22.057Z,20
2018-07-10T03:13:22.878Z,20
2018-07-10T03:14:22.313Z,24
2018-07-10T03:15:22.324Z,28
2018-07-10T03:16:22.080Z,32
2018-07-10T03:17:21.843Z,32
2018-07-10T03:18:22.327Z,36
2018-07-10T03:19:22.328Z,40
2018-07-10T03:20:21.875Z,40
2018-07-10T03:21:21.875Z,44
2018-07-10T03:22:22.085Z,48
2018-07-10T03:23:22.092Z,56
2018-07-10T03:24:22.085Z,60
2018-07-10T03:25:22.332Z,64
2018-07-10T03:26:21.844Z,68
2018-07-10T03:27:22.383Z,72
2018-07-10T03:28:21.837Z,80
2018-07-10T03:29:21.866Z,84
2018-07-10T03:30:22.330Z,92
2018-07-10T03:31:22.339Z,104
2018-07-10T03:32:22.349Z,116
2018-07-10T03:33:22.128Z,124
2018-07-10T03:34:22.093Z,140
2018-07-10T03:35:22.101Z,156
2018-07-10T03:36:22.416Z,172
2018-07-10T03:37:21.854Z,188
2018-07-10T03:38:22.098Z,212
2018-07-10T03:39:21.867Z,232
2018-07-10T03:40:22.092Z,256
2018-07-10T03:41:21.865Z,284
2018-07-10T03:42:22.383Z,316
2018-07-10T03:43:22.125Z,348
2018-07-10T03:44:22.103Z,388
2018-07-10T03:45:22.097Z,428
2018-07-10T03:46:21.874Z,464
2018-07-10T03:47:21.911Z,504
2018-07-10T03:48:22.128Z,536
2018-07-10T03:49:21.873Z,564
2018-07-10T03:50:22.368Z,596
2018-07-10T03:51:22.114Z,628
2018-07-10T03:52:22.116Z,660
2018-07-10T03:53:22.128Z,692
2018-07-10T03:54:22.120Z,720
2018-07-10T03:55:22.098Z,748
2018-07-10T03:56:22.119Z,784
2018-07-10T03:57:21.896Z,824
2018-07-10T03:58:22.373Z,840
2018-07-10T03:59:21.898Z,868
2018-07-10T04:00:21.889Z,900
2018-07-10T04:01:21.900Z,932
2018-07-10T04:02:22.379Z,968
2018-07-10T04:03:22.394Z,1004
2018-07-10T04:04:22.387Z,1036
2018-07-10T04:05:22.137Z,1100
2018-07-10T04:06:21.910Z,1084
2018-07-10T04:07:22.388Z,1116
2018-07-10T04:08:22.396Z,1128
2018-07-10T04:09:22.169Z,1148
2018-07-10T04:10:22.164Z,1208
2018-07-10T04:11:22.139Z,1216
2018-07-10T04:12:22.306Z,1248
2018-07-10T04:13:22.161Z,1304
2018-07-10T04:14:21.896Z,1312
2018-07-10T04:15:21.640Z,1364
2018-07-10T04:16:22.145Z,1416
2018-07-10T04:17:21.935Z,1464
2018-07-10T04:18:21.932Z,1528
2018-07-10T04:19:22.170Z,1592
2018-07-10T04:20:22.407Z,1644
2018-07-10T04:21:22.455Z,1716
2018-07-10T04:22:22.408Z,1760
2018-07-10T04:23:21.935Z,1804
2018-07-10T04:24:22.426Z,1856
2018-07-10T04:25:22.172Z,1940
2018-07-10T04:26:21.938Z,1960
2018-07-10T04:27:21.937Z,1996
2018-07-10T04:28:22.168Z,2036
2018-07-10T04:29:21.939Z,2080
2018-07-10T04:30:22.428Z,2128
2018-07-10T04:31:22.425Z,2176
2018-07-10T04:32:22.456Z,2236
2018-07-10T04:33:22.174Z,2296
2018-07-10T04:34:22.175Z,2356
2018-07-10T04:35:22.176Z,2436
2018-07-10T04:36:22.191Z,2524
2018-07-10T04:37:22.429Z,2620
2018-07-10T04:38:22.184Z,2708
2018-07-10T04:39:22.175Z,2776
2018-07-10T04:40:22.197Z,2816
2018-07-10T04:41:22.449Z,2824
2018-07-10T04:42:22.667Z,2820
2018-07-10T04:43:22.184Z,2804
2018-07-10T04:44:22.208Z,2784
2018-07-10T04:45:22.208Z,2756
2018-07-10T04:46:21.693Z,2708
2018-07-10T04:47:22.477Z,2640
2018-07-10T04:48:22.007Z,2588
2018-07-10T04:49:22.746Z,2556
2018-07-10T04:50:22.470Z,2528
2018-07-10T04:51:22.210Z,2512
2018-07-10T04:52:22.211Z,2504
2018-07-10T04:53:22.464Z,2488
2018-07-10T04:54:22.210Z,2476
2018-07-10T04:55:22.267Z,2464
2018-07-10T04:56:22.463Z,2472
2018-07-10T04:57:22.208Z,2472
2018-07-10T04:58:21.980Z,2476
2018-07-10T04:59:22.495Z,2492
2018-07-10T05:00:22.536Z,2520
2018-07-10T05:01:22.480Z,2560
2018-07-10T05:02:22.239Z,2600
2018-07-10T05:03:22.225Z,2652
2018-07-10T05:04:21.988Z,2704
2018-07-10T05:05:22.016Z,2764
2018-07-10T05:06:22.003Z,2828
2018-07-10T05:07:22.241Z,2896
2018-07-10T05:08:22.250Z,2960
2018-07-10T05:09:22.243Z,3024
2018-07-10T05:10:21.998Z,3092
2018-07-10T05:11:22.508Z,3152
2018-07-10T05:12:22.246Z,3188
2018-07-10T05:13:22.246Z,3208
2018-07-10T05:14:22.244Z,3224
2018-07-10T05:15:22.007Z,3252
2018-07-10T05:16:22.248Z,3284
2018-07-10T05:17:22.264Z,3332
2018-07-10T05:18:22.018Z,3360
2018-07-10T05:19:22.024Z,3356
2018-07-10T05:20:22.028Z,3328
2018-07-10T05:21:22.021Z,3288
2018-07-10T05:22:22.264Z,3260
2018-07-10T05:23:22.029Z,3260
2018-07-10T05:24:22.268Z,3276
2018-07-10T05:25:22.547Z,3312
2018-07-10T05:26:22.274Z,3360
2018-07-10T05:27:22.263Z,3416
2018-07-10T05:28:22.272Z,3376
2018-07-10T05:29:22.526Z,3384
2018-07-10T05:30:22.528Z,3396
2018-07-10T05:31:22.028Z,3392
2018-07-10T05:32:22.323Z,3356
2018-07-10T05:33:22.293Z,3308
2018-07-10T05:34:22.283Z,3284
2018-07-10T05:35:22.528Z,3276
2018-07-10T05:36:22.545Z,3248
2018-07-10T05:37:22.814Z,3208
2018-07-10T05:38:22.564Z,3148
2018-07-10T05:39:22.103Z,3056
2018-07-10T05:40:22.305Z,2960
2018-07-10T05:41:22.303Z,2920
2018-07-10T05:42:22.307Z,2904
2018-07-10T05:43:25.402Z,2928
2018-07-10T05:44:22.057Z,2976
2018-07-10T05:45:22.306Z,3068
2018-07-10T05:46:22.630Z,3148
2018-07-10T05:47:22.556Z,3240
2018-07-10T05:48:22.559Z,3308
2018-07-10T05:49:22.535Z,3316
2018-07-10T05:50:22.568Z,3308
2018-07-10T05:51:22.365Z,3364
2018-07-10T05:52:22.074Z,3448
2018-07-10T05:53:22.569Z,3536
2018-07-10T05:54:22.579Z,3600
2018-07-10T05:55:22.077Z,3600
2018-07-10T05:56:22.072Z,3552
2018-07-10T05:57:22.596Z,3500
2018-07-10T05:58:22.699Z,3468
2018-07-10T05:59:22.493Z,3452
2018-07-10T06:00:22.363Z,3416
2018-07-10T06:01:22.607Z,3404
2018-07-10T06:02:22.588Z,3384
2018-07-10T06:03:22.343Z,3364
2018-07-10T06:04:22.372Z,3368
2018-07-10T06:05:22.100Z,3400
2018-07-10T06:06:22.615Z,3440
2018-07-10T06:07:22.358Z,3488
2018-07-10T06:08:22.353Z,3584
2018-07-10T06:09:22.614Z,3696
2018-07-10T06:10:22.652Z,3828
2018-07-10T06:11:22.361Z,4096
2018-07-10T06:12:22.362Z,4468
2018-07-10T06:13:22.410Z,4736
2018-07-10T06:14:22.356Z,4864
2018-07-10T06:23:48.202Z,5080
2018-07-10T06:24:48.202Z,5112
2018-07-10T06:25:48.226Z,5048
2018-07-10T06:26:48.196Z,4940
2018-07-10T06:27:47.939Z,4860
2018-07-10T06:28:48.213Z,4816
2018-07-10T06:29:47.947Z,4832
2018-07-10T06:30:48.470Z,4684
2018-07-10T06:31:48.448Z,4580
2018-07-10T06:32:48.205Z,4472
2018-07-10T06:33:48.467Z,4348
2018-07-10T06:34:48.470Z,4212
2018-07-10T06:35:48.211Z,4096
2018-07-10T06:36:48.207Z,4008
2018-07-10T06:37:48.210Z,3988
2018-07-10T06:38:48.217Z,4004
2018-07-10T06:39:48.384Z,4028
2018-07-10T06:40:48.090Z,4072
2018-07-10T06:41:48.473Z,4148
2018-07-10T06:42:48.477Z,4252
2018-07-10T06:43:48.469Z,4380
2018-07-10T06:44:47.977Z,4488
2018-07-10T06:45:48.260Z,4560
2018-07-10T06:46:48.509Z,4560
2018-07-10T06:47:48.037Z,4552
2018-07-10T06:48:48.970Z,4636
2018-07-10T06:49:48.238Z,4804
2018-07-10T06:50:48.225Z,5028
2018-07-10T06:51:47.994Z,5292
2018-07-10T06:52:48.973Z,5476
2018-07-10T06:53:48.919Z,5508
2018-07-10T06:54:48.496Z,5416
2018-07-10T06:55:48.354Z,5224
2018-07-10T06:56:48.256Z,4936
2018-07-10T06:57:48.507Z,4628
2018-07-10T06:58:48.000Z,4452
2018-07-10T06:59:48.246Z,4440
2018-07-10T07:00:48.341Z,4556
2018-07-10T07:01:48.284Z,4740
2018-07-10T07:02:48.266Z,4904
2018-07-10T07:03:47.751Z,5000
2018-07-10T07:04:48.016Z,4852
2018-07-10T07:05:48.101Z,4448
2018-07-10T07:06:48.278Z,3996
2018-07-10T07:07:48.559Z,3580
2018-07-10T07:08:48.032Z,3228
2018-07-10T07:09:48.536Z,2940
2018-07-10T07:10:48.065Z,2740
2018-07-10T07:11:48.537Z,2588
2018-07-10T07:12:47.797Z,2480
2018-07-10T07:13:51.519Z,2392
2018-07-10T07:14:48.056Z,2336
2018-07-10T07:15:47.840Z,2304
2018-07-10T07:16:48.308Z,2252
2018-07-10T07:17:48.074Z,2176
2018-07-10T07:18:48.338Z,2116
2018-07-10T07:19:47.797Z,2048
2018-07-10T07:20:48.590Z,1968
2018-07-10T07:21:48.317Z,1940
2018-07-10T07:22:47.826Z,2020
2018-07-10T07:23:48.828Z,2256
2018-07-10T07:24:48.579Z,2604
2018-07-10T07:25:48.379Z,2968
2018-07-10T07:26:48.581Z,3268
2018-07-10T07:27:48.081Z,3472
2018-07-10T07:28:48.324Z,3512
2018-07-10T07:29:48.332Z,3332
2018-07-10T07:30:48.080Z,3080
2018-07-10T07:31:48.624Z,2864
2018-07-10T07:32:48.350Z,2704
2018-07-10T07:33:48.602Z,2584
2018-07-10T07:34:48.342Z,2432
2018-07-10T07:35:48.107Z,2140
2018-07-10T07:36:48.354Z,1800
2018-07-10T07:37:48.353Z,1524
2018-07-10T07:38:47.837Z,1328
2018-07-10T07:39:48.346Z,1200
2018-07-10T07:40:48.367Z,1140
2018-07-10T07:41:48.636Z,1180
2018-07-10T07:42:48.393Z,1332
2018-07-10T07:43:47.948Z,1624
2018-07-10T07:44:48.406Z,2160
2018-07-10T07:45:48.198Z,2820
2018-07-10T07:46:48.361Z,3496
2018-07-10T07:47:48.595Z,4020
2018-07-10T07:48:48.606Z,4444
2018-07-10T07:49:48.631Z,4872
2018-07-10T07:50:48.641Z,5292
2018-07-10T07:51:48.630Z,5604
2018-07-10T07:52:47.869Z,5672
2018-07-10T07:53:48.123Z,5528
2018-07-10T07:54:48.376Z,5200
2018-07-10T07:55:48.128Z,4812
2018-07-10T07:56:48.640Z,4580
2018-07-10T07:57:48.390Z,4448
2018-07-10T07:58:48.421Z,4396
2018-07-10T07:59:48.384Z,4412
2018-07-10T08:00:48.659Z,4564
2018-07-10T08:01:48.632Z,4828
2018-07-10T08:02:48.662Z,5216
2018-07-10T08:03:48.384Z,5664
2018-07-10T08:04:48.646Z,6084
2018-07-10T08:05:48.456Z,6448
2018-07-10T08:06:48.412Z,6800
2018-07-10T08:07:48.421Z,7108
2018-07-10T08:08:48.662Z,7248
2018-07-10T08:09:48.390Z,7272
2018-07-10T08:10:48.159Z,7236
2018-07-10T08:11:48.649Z,7260
2018-07-10T08:12:48.167Z,7408
2018-07-10T08:13:48.171Z,7652
2018-07-10T08:14:48.421Z,7820
2018-07-10T08:15:48.260Z,7932
2018-07-10T08:16:48.410Z,8120
2018-07-10T08:17:47.916Z,8288
2018-07-10T08:18:48.165Z,8492
2018-07-10T08:19:48.435Z,8764
2018-07-10T08:20:48.479Z,9156
2018-07-10T08:21:48.187Z,9516
2018-07-10T08:22:48.724Z,9664
2018-07-10T08:23:48.700Z,9512
2018-07-10T08:24:48.706Z,9268
2018-07-10T08:25:48.702Z,9076
2018-07-10T08:26:48.441Z,9020
2018-07-10T08:27:47.943Z,8888
2018-07-10T08:28:48.457Z,8796
2018-07-10T08:29:48.478Z,8732
2018-07-10T08:30:48.755Z,8672
2018-07-10T08:31:48.456Z,8704
2018-07-10T08:32:48.460Z,8760
2018-07-10T08:33:49.061Z,8872
2018-07-10T08:34:48.718Z,9004
2018-07-10T08:35:48.730Z,9084
2018-07-10T08:36:48.480Z,9180
2018-07-10T08:37:48.749Z,9312
2018-07-10T08:38:48.749Z,9412
2018-07-10T08:39:48.480Z,9512
2018-07-10T08:40:48.797Z,9876
2018-07-10T08:41:48.251Z,10636
2018-07-10T08:42:48.248Z,10880
2018-07-10T08:43:48.491Z,11244
2018-07-10T08:44:48.742Z,12128
2018-07-10T08:45:48.571Z,12200
2018-07-10T08:46:48.500Z,12240
2018-07-10T08:47:48.490Z,12176
2018-07-10T08:48:48.559Z,12524
2018-07-10T08:49:48.525Z,13920
2018-07-10T08:50:48.710Z,14840
2018-07-10T08:51:48.516Z,14352
2018-07-10T08:52:48.530Z,13616
2018-07-10T08:53:48.532Z,12964
2018-07-10T08:54:48.538Z,12444
2018-07-10T08:55:48.617Z,12028
2018-07-10T08:56:48.811Z,11792
2018-07-10T08:57:48.812Z,11496
2018-07-10T08:58:48.812Z,11116
2018-07-10T08:59:49.033Z,10664
2018-07-10T09:00:48.331Z,10508
2018-07-10T09:01:48.575Z,10532
2018-07-10T09:02:48.324Z,10888
2018-07-10T09:03:48.831Z,11168
2018-07-10T09:04:48.830Z,14140
2018-07-10T09:05:48.367Z,12424
2018-07-10T09:06:48.570Z,10840
2018-07-10T09:07:48.335Z,10320
2018-07-10T09:08:48.856Z,9920
2018-07-10T09:09:48.845Z,9340
2018-07-10T09:10:48.868Z,9128
2018-07-10T09:11:48.853Z,9472
2018-07-10T09:12:48.871Z,9888
2018-07-10T09:13:49.009Z,10332
2018-07-10T09:14:50.242Z,10344
2018-07-10T09:15:48.452Z,10244
2018-07-10T09:16:48.633Z,10572
2018-07-10T09:17:48.885Z,11408
2018-07-10T09:18:48.898Z,12704
2018-07-10T09:19:48.909Z,18016
2018-07-10T09:20:48.911Z,18336
2018-07-10T09:21:48.926Z,18592
2018-07-10T09:22:48.668Z,18496
2018-07-10T09:23:48.930Z,18496
2018-07-10T09:24:48.921Z,14948
2018-07-10T09:25:48.709Z,10940
2018-07-10T09:26:48.941Z,8684
2018-07-10T09:27:48.942Z,7028
2018-07-10T09:28:48.678Z,6044
2018-07-10T09:29:48.687Z,5712
2018-07-10T09:30:49.022Z,5828
2018-07-10T09:31:48.455Z,6000
2018-07-10T09:32:48.969Z,6248
2018-07-10T09:33:48.299Z,6452
2018-07-10T09:34:48.961Z,6664
2018-07-10T09:35:48.776Z,6896
2018-07-10T09:36:48.475Z,6932
2018-07-10T09:37:48.551Z,6840
2018-07-10T09:38:49.052Z,6768
2018-07-10T09:39:48.801Z,6616
2018-07-10T09:40:48.517Z,6416
2018-07-10T09:41:48.994Z,6232
2018-07-10T09:42:48.762Z,6140
2018-07-10T09:43:48.491Z,6128
2018-07-10T09:44:49.017Z,6204
2018-07-10T09:45:49.104Z,6316
2018-07-10T09:46:49.105Z,6468
2018-07-10T09:47:48.767Z,6708
2018-07-10T09:48:49.022Z,6968
2018-07-10T09:49:49.027Z,7252
2018-07-10T09:50:48.811Z,7548
2018-07-10T09:51:48.787Z,7820
2018-07-10T09:52:49.030Z,8076
2018-07-10T09:53:48.550Z,8364
2018-07-10T09:54:49.438Z,8672
2018-07-10T09:55:48.795Z,9012
2018-07-10T09:56:48.785Z,9364
2018-07-10T09:57:48.817Z,9904
2018-07-10T09:58:48.544Z,9924
2018-07-10T09:59:48.848Z,10132
2018-07-10T10:00:48.829Z,10356
2018-07-10T10:01:49.121Z,10620
2018-07-10T10:02:48.807Z,10880
2018-07-10T10:03:48.574Z,11092
2018-07-10T10:04:48.811Z,11252
2018-07-10T10:05:48.878Z,11348
2018-07-10T10:06:48.813Z,11152
2018-07-10T10:07:48.818Z,11108
2018-07-10T10:08:48.577Z,11220
2018-07-10T10:09:48.837Z,12584
2018-07-10T10:10:49.162Z,12780
2018-07-10T10:11:48.871Z,15164
2018-07-10T10:12:48.830Z,19680
2018-07-10T10:13:49.079Z,20160
2018-07-10T10:14:48.724Z,20704
2018-07-10T10:15:49.197Z,18816
2018-07-10T10:16:48.622Z,19552
2018-07-10T10:17:48.874Z,17344
2018-07-10T10:18:48.872Z,17504
2018-07-10T10:19:48.866Z,16288
2018-07-10T10:20:48.353Z,15144
2018-07-10T10:21:48.370Z,13456
2018-07-10T10:22:49.128Z,11868
2018-07-10T10:54:48.221Z,9572
2018-07-10T10:55:48.213Z,8588
2018-07-10T10:56:47.943Z,7864
2018-07-10T10:57:47.935Z,7820
2018-07-10T10:58:47.946Z,8056
2018-07-10T10:59:48.443Z,8116
2018-07-10T11:00:48.268Z,7860
2018-07-10T11:01:48.215Z,7292
2018-07-10T11:02:48.345Z,6908
2018-07-10T11:03:48.453Z,6828
2018-07-10T11:04:48.460Z,6456
2018-07-10T11:05:48.297Z,5832
2018-07-10T11:06:48.198Z,5200
2018-07-10T11:07:48.228Z,4740
2018-07-10T11:08:48.198Z,4532
2018-07-10T11:09:48.456Z,4492
2018-07-10T11:10:48.332Z,4620
2018-07-10T11:11:47.957Z,4972
2018-07-10T11:12:48.472Z,5256
2018-07-10T11:13:47.955Z,5484
2018-07-10T11:14:48.225Z,5620
2018-07-10T11:15:47.731Z,5664
2018-07-10T11:16:48.226Z,5764
2018-07-10T11:17:47.961Z,5868
2018-07-10T11:18:48.276Z,5744
2018-07-10T11:19:48.224Z,5740
2018-07-10T11:20:48.264Z,5752
2018-07-10T11:21:47.990Z,5760
2018-07-10T11:22:48.253Z,5792
2018-07-10T11:23:48.254Z,5860
2018-07-10T11:24:47.986Z,5912
2018-07-10T11:25:48.283Z,5900
2018-07-10T11:26:48.015Z,5900
2018-07-10T11:27:47.736Z,5932
2018-07-10T11:28:48.281Z,6004
2018-07-10T11:29:48.498Z,6108
2018-07-10T11:30:48.551Z,6232
2018-07-10T11:31:48.273Z,6388
2018-07-10T11:32:48.517Z,6684
2018-07-10T11:33:48.012Z,7160
2018-07-10T11:34:48.020Z,7536
2018-07-10T11:35:48.021Z,7796
2018-07-10T11:36:48.286Z,8024
2018-07-10T11:37:48.285Z,8132
2018-07-10T11:38:48.009Z,8216
2018-07-10T11:39:48.008Z,8340
2018-07-10T11:40:48.319Z,8444
2018-07-10T11:41:48.274Z,8588
2018-07-10T11:42:48.272Z,8816
2018-07-10T11:43:48.025Z,9088
2018-07-10T11:44:48.022Z,9296
2018-07-10T11:45:48.857Z,9524
2018-07-10T11:46:48.020Z,9856
2018-07-10T11:47:48.030Z,10260
2018-07-10T11:48:48.294Z,10604
2018-07-10T11:49:48.292Z,11000
2018-07-10T11:50:48.388Z,11380
2018-07-10T11:51:48.884Z,11664
2018-07-10T11:52:48.312Z,12080
2018-07-10T11:53:48.328Z,12260
2018-07-10T11:54:48.544Z,12488
2018-07-10T11:55:48.117Z,12640
2018-07-10T11:56:48.554Z,12808
2018-07-10T11:57:48.309Z,13216
2018-07-10T11:58:48.312Z,13352
2018-07-10T11:59:48.318Z,13796
2018-07-10T12:00:48.624Z,14052
2018-07-10T12:01:48.630Z,15536
2018-07-10T12:02:48.334Z,14752
2018-07-10T12:03:48.075Z,15424
2018-07-10T12:04:48.909Z,14236
2018-07-10T12:05:48.161Z,13388
2018-07-10T12:06:48.590Z,11732
2018-07-10T12:07:48.078Z,11332
2018-07-10T12:08:48.577Z,11024
2018-07-10T12:09:48.348Z,10444
2018-07-10T12:10:47.907Z,9872
2018-07-10T12:11:48.606Z,10184
2018-07-10T12:12:48.916Z,11036
2018-07-10T12:13:48.606Z,11240
2018-07-10T12:14:48.112Z,11016
2018-07-10T12:15:48.741Z,10772
2018-07-10T12:16:48.377Z,10144
2018-07-10T12:17:48.633Z,10280
2018-07-10T12:18:48.362Z,9560
2018-07-10T12:19:48.374Z,9464
2018-07-10T12:20:48.906Z,10436
2018-07-10T12:21:48.135Z,12408
2018-07-10T12:22:48.640Z,13444
2018-07-10T12:23:48.651Z,13272
2018-07-10T12:24:48.392Z,13460
2018-07-10T12:25:48.500Z,13312
2018-07-10T12:26:48.150Z,13804
2018-07-10T12:27:48.395Z,14052
2018-07-10T12:28:48.640Z,13568
2018-07-10T12:29:48.646Z,11912
2018-07-10T12:30:48.487Z,11788
2018-07-10T12:31:48.416Z,12368
2018-07-10T12:32:48.190Z,13104
2018-07-10T12:33:48.169Z,12648
2018-07-10T12:34:48.515Z,13116
2018-07-10T12:35:48.499Z,13068
2018-07-10T12:36:48.446Z,13124
2018-07-10T12:37:48.191Z,14060
2018-07-10T12:38:48.449Z,12776
2018-07-10T12:39:48.694Z,13728
2018-07-10T12:40:48.471Z,13220
2018-07-10T12:41:49.076Z,14080
2018-07-10T12:42:48.187Z,12124
2018-07-10T12:43:48.455Z,11532
2018-07-10T12:44:47.967Z,11416
2018-07-10T12:45:48.762Z,10240
2018-07-10T12:46:48.753Z,9884
2018-07-10T12:47:48.473Z,10248
2018-07-10T12:48:48.472Z,12388
2018-07-10T12:49:48.753Z,11616
2018-07-10T12:50:48.016Z,11752
2018-07-10T12:51:48.240Z,11860
2018-07-10T12:52:48.234Z,12628
2018-07-10T12:53:48.273Z,11840
2018-07-10T12:54:48.265Z,10268
2018-07-10T12:55:48.499Z,8516
2018-07-10T12:56:48.503Z,7828
2018-07-10T12:57:48.509Z,7880
2018-07-10T12:58:48.259Z,7540
2018-07-10T12:59:48.260Z,9208
2018-07-10T13:00:48.581Z,8340
2018-07-10T13:01:48.815Z,8608
2018-07-10T13:02:48.299Z,8436
2018-07-10T13:03:48.792Z,8240
2018-07-10T13:04:48.301Z,8084
2018-07-10T13:05:48.863Z,8020
2018-07-10T13:06:48.836Z,7984
2018-07-10T13:07:48.812Z,8084
2018-07-10T13:08:48.557Z,7212
2018-07-10T13:09:48.309Z,8232
2018-07-10T13:10:48.408Z,8196
2018-07-10T13:11:48.578Z,7344
2018-07-10T13:12:48.555Z,7964
2018-07-10T13:13:48.325Z,7836
2018-07-10T13:14:48.312Z,7904
2018-07-10T13:15:48.852Z,7984
2018-07-10T13:16:48.572Z,7976
2018-07-10T13:17:48.577Z,8128
2018-07-10T13:18:48.580Z,8512
2018-07-10T13:19:48.841Z,9220
2018-07-10T13:20:48.597Z,9924
2018-07-10T13:21:48.838Z,10176
2018-07-10T13:22:48.866Z,10304
2018-07-10T13:23:48.602Z,10344
2018-07-10T13:24:48.369Z,10504
2018-07-10T13:25:48.663Z,10396
2018-07-10T13:26:48.875Z,10084
2018-07-10T13:27:48.624Z,9324
2018-07-10T13:28:48.606Z,9408
2018-07-10T13:29:48.620Z,8460
2018-07-10T13:30:48.633Z,8860
2018-07-10T13:31:48.370Z,8904
2018-07-10T13:32:48.391Z,8340
2018-07-10T13:33:48.627Z,7992
2018-07-10T13:34:48.877Z,9144
2018-07-10T13:35:48.440Z,10552
2018-07-10T13:36:48.388Z,11272
2018-07-10T13:37:48.386Z,10732
2018-07-10T13:38:48.651Z,11764
2018-07-10T13:39:48.906Z,12040
2018-07-10T13:40:48.407Z,11844
2018-07-10T13:41:48.689Z,11116
2018-07-10T13:42:48.420Z,10072
2018-07-10T13:43:48.418Z,9636
2018-07-10T13:44:48.672Z,9616
2018-07-10T13:45:48.421Z,8832
2018-07-10T13:46:48.667Z,8080
2018-07-10T13:47:48.720Z,8412
2018-07-10T13:48:48.963Z,7992
2018-07-10T13:49:48.683Z,7604
2018-07-10T13:50:48.692Z,7580
2018-07-10T13:51:48.946Z,7700
2018-07-10T13:52:48.696Z,7704
2018-07-10T13:53:48.707Z,8112
2018-07-10T13:54:48.957Z,10060
2018-07-10T13:55:48.501Z,8024
2018-07-10T13:56:48.788Z,9136
2018-07-10T13:57:48.731Z,9212
2018-07-10T13:58:48.982Z,9380
2018-07-10T13:59:48.712Z,8200
2018-07-10T14:00:48.798Z,7464
2018-07-10T14:01:48.719Z,7380
2018-07-10T14:02:48.484Z,7396
2018-07-10T14:03:48.989Z,7800
2018-07-10T14:04:49.563Z,7764
2018-07-10T14:05:48.869Z,7732
2018-07-10T14:06:49.009Z,8004
2018-07-10T14:07:48.736Z,9116
2018-07-10T14:08:48.489Z,10160
2018-07-10T14:09:49.162Z,9728
2018-07-10T14:10:49.027Z,9796
2018-07-10T14:11:48.507Z,9928
2018-07-10T14:12:48.944Z,9732
2018-07-10T14:13:48.786Z,9504
2018-07-10T14:14:48.777Z,8776